createdAt,value
2022-10-31T00:01:34.778Z,82.43
2022-10-31T00:04:04.390Z,113.67
2022-10-31T00:06:32.303Z,174.67
2022-10-31T00:09:01.879Z,31.43
2022-10-31T00:11:29.859Z,11.63
2022-10-31T00:13:59.243Z,14.40
2022-10-31T00:16:27.958Z,24.37
2022-10-31T00:18:58.069Z,27.60
2022-10-31T00:21:28.259Z,58.40
2022-10-31T00:23:56.281Z,32.23
2022-10-31T00:26:24.157Z,7.57
2022-10-31T00:28:52.228Z,31.37
2022-10-31T00:31:20.520Z,32.23
2022-10-31T00:33:48.474Z,28.33
2022-10-31T00:36:18.456Z,39.13
2022-10-31T00:38:48.177Z,26.77
2022-10-31T00:41:17.884Z,53.20
2022-10-31T00:43:46.131Z,56.30
2022-10-31T00:46:14.599Z,9.20
2022-10-31T00:48:42.619Z,11.93
2022-10-31T00:51:10.708Z,27.93
2022-10-31T00:53:38.726Z,53.30
2022-10-31T00:56:08.927Z,28.50
2022-10-31T00:58:36.861Z,46.63
2022-10-31T01:01:05.201Z,33.00
2022-10-31T01:03:34.899Z,20.07
2022-10-31T01:06:04.802Z,23.90
2022-10-31T01:08:32.943Z,43.43
2022-10-31T01:11:02.611Z,16.10
2022-10-31T01:13:31.931Z,35.43
2022-10-31T01:16:00.386Z,60.27
2022-10-31T01:18:28.563Z,36.97
2022-10-31T01:21:03.207Z,37.87
2022-10-31T01:23:31.364Z,48.43
2022-10-31T01:26:10.772Z,34.40
2022-10-31T01:28:45.179Z,41.70
2022-10-31T01:31:13.126Z,20.37
2022-10-31T01:33:41.075Z,25.37
2022-10-31T01:36:19.545Z,12.77
2022-10-31T01:38:47.862Z,18.70
2022-10-31T01:41:18.865Z,8.60
2022-10-31T01:43:54.936Z,7.60
2022-10-31T01:46:25.639Z,5.03
2022-10-31T01:48:55.416Z,7.47
2022-10-31T01:51:27.146Z,5.90
2022-10-31T01:53:58.206Z,9.60
2022-10-31T01:56:26.376Z,11.90
2022-10-31T01:58:57.120Z,8.70
2022-10-31T02:01:25.396Z,5.50
2022-10-31T02:03:53.508Z,4.70
2022-10-31T02:06:28.943Z,5.50
2022-10-31T02:08:57.771Z,5.17
2022-10-31T02:11:26.044Z,6.17
2022-10-31T02:13:55.434Z,7.17
2022-10-31T02:16:23.312Z,7.40
2022-10-31T02:18:51.308Z,5.63
2022-10-31T02:21:22.107Z,3.97
2022-10-31T02:24:14.760Z,3.80
2022-10-31T02:27:01.368Z,3.57
2022-10-31T02:29:52.871Z,3.50
2022-10-31T02:32:24.459Z,3.70
2022-10-31T02:34:55.851Z,4.10
2022-10-31T02:37:28.590Z,3.90
2022-10-31T02:39:59.214Z,4.03
2022-10-31T02:42:31.710Z,4.10
2022-10-31T02:45:04.793Z,4.30
2022-10-31T02:47:36.477Z,3.63
2022-10-31T02:50:08.764Z,4.93
2022-10-31T02:52:37.449Z,4.07
2022-10-31T02:55:47.075Z,4.10
2022-10-31T02:58:17.097Z,8.77
2022-10-31T03:00:56.191Z,4.33
2022-10-31T03:03:29.688Z,6.20
2022-10-31T03:06:03.045Z,4.37
2022-10-31T03:08:35.040Z,4.90
2022-10-31T03:11:05.753Z,4.60
2022-10-31T03:13:37.970Z,5.97
2022-10-31T03:16:10.844Z,6.43
2022-10-31T03:18:42.495Z,6.27
2022-10-31T03:21:12.711Z,7.00
2022-10-31T03:23:41.660Z,6.70
2022-10-31T03:26:11.842Z,6.10
2022-10-31T03:28:43.964Z,6.40
2022-10-31T03:31:12.202Z,6.50
2022-10-31T03:33:41.937Z,5.77
2022-10-31T03:36:11.247Z,5.17
2022-10-31T03:38:39.835Z,5.20
2022-10-31T03:41:12.177Z,5.57
2022-10-31T03:43:44.014Z,5.83
2022-10-31T03:46:12.007Z,5.37
2022-10-31T03:48:40.236Z,6.67
2022-10-31T03:51:12.951Z,5.30
2022-10-31T03:53:43.000Z,5.20
2022-10-31T03:56:18.128Z,5.83
2022-10-31T03:58:49.509Z,5.90
2022-10-31T04:01:19.169Z,5.73
2022-10-31T04:03:47.440Z,6.47
2022-10-31T04:06:17.060Z,4.40
2022-10-31T04:08:48.199Z,7.20
2022-10-31T04:11:18.789Z,5.13
2022-10-31T04:13:47.748Z,4.63
2022-10-31T04:16:17.404Z,4.33
2022-10-31T04:18:45.701Z,4.83
2022-10-31T04:21:13.615Z,3.73
2022-10-31T04:23:41.522Z,4.20
2022-10-31T04:26:10.649Z,3.80
2022-10-31T04:28:40.034Z,4.10
2022-10-31T04:31:07.982Z,4.70
2022-10-31T04:33:35.863Z,3.73
2022-10-31T04:36:03.902Z,8.00
2022-10-31T04:38:31.776Z,5.50
2022-10-31T04:40:59.678Z,4.93
2022-10-31T04:43:27.572Z,5.00
2022-10-31T04:45:56.875Z,4.33
2022-10-31T04:48:24.773Z,4.13
2022-10-31T04:50:52.663Z,4.70
2022-10-31T04:53:20.552Z,4.63
2022-10-31T04:55:48.488Z,5.03
2022-10-31T05:00:45.238Z,4.30
2022-10-31T05:03:14.515Z,5.07
2022-10-31T05:05:43.760Z,7.00
2022-10-31T05:08:11.724Z,8.13
2022-10-31T05:10:39.612Z,5.20
2022-10-31T05:13:07.819Z,6.47
2022-10-31T05:15:35.796Z,9.40
2022-10-31T05:18:04.426Z,13.77
2022-10-31T05:20:34.086Z,10.50
2022-10-31T05:23:02.145Z,23.20
2022-10-31T05:25:30.765Z,19.90
2022-10-31T05:27:59.404Z,18.53
2022-10-31T05:30:30.079Z,12.00
2022-10-31T05:32:58.395Z,13.43
2022-10-31T05:35:28.660Z,12.47
2022-10-31T05:37:58.622Z,29.83
2022-10-31T05:40:28.038Z,34.93
2022-10-31T05:42:57.393Z,28.47
2022-10-31T05:45:25.896Z,24.43
2022-10-31T05:47:54.644Z,19.43
2022-10-31T05:50:22.583Z,16.97
2022-10-31T05:52:57.931Z,13.47
2022-10-31T05:55:26.660Z,10.37
2022-10-31T05:57:54.660Z,10.30
2022-10-31T06:00:23.032Z,9.23
2022-10-31T06:02:51.139Z,11.07
2022-10-31T06:05:19.015Z,6.80
2022-10-31T06:07:46.867Z,19.43
2022-10-31T06:10:17.528Z,8.63
2022-10-31T06:12:45.421Z,8.00
2022-10-31T06:15:13.256Z,10.90
2022-10-31T06:17:41.384Z,10.50
2022-10-31T06:20:10.199Z,19.37
2022-10-31T06:22:38.086Z,15.90
2022-10-31T06:25:06.456Z,10.10
2022-10-31T06:27:35.765Z,18.83
2022-10-31T06:30:03.785Z,12.43
2022-10-31T06:32:31.688Z,15.47
2022-10-31T06:34:59.579Z,12.77
2022-10-31T06:37:27.475Z,15.50
2022-10-31T06:39:55.429Z,11.97
2022-10-31T06:42:23.305Z,25.10
2022-10-31T06:44:52.555Z,24.70
2022-10-31T06:47:20.452Z,24.10
2022-10-31T06:49:48.348Z,16.33
2022-10-31T06:52:16.302Z,18.70
2022-10-31T06:54:44.212Z,11.50
2022-10-31T06:57:12.127Z,28.80
2022-10-31T06:59:39.991Z,30.00
2022-10-31T07:02:10.148Z,21.37
2022-10-31T07:04:38.128Z,237.90
2022-10-31T07:07:08.848Z,152.40
2022-10-31T07:09:36.845Z,47.27
2022-10-31T07:12:05.177Z,29.67
2022-10-31T07:14:33.129Z,41.37
2022-10-31T07:17:01.019Z,23.53
2022-10-31T07:19:30.320Z,18.30
2022-10-31T07:21:58.934Z,29.37
2022-10-31T07:24:26.844Z,45.67
2022-10-31T07:26:54.740Z,69.50
2022-10-31T07:29:23.796Z,44.03
2022-10-31T07:31:51.732Z,152.80
2022-10-31T07:34:19.797Z,144.53
2022-10-31T07:36:49.044Z,61.77
2022-10-31T07:39:16.948Z,150.77
2022-10-31T07:41:44.851Z,140.97
2022-10-31T07:44:12.740Z,85.60
2022-10-31T07:46:40.648Z,58.23
2022-10-31T07:49:08.548Z,24.70
2022-10-31T07:51:36.448Z,18.43
2022-10-31T07:54:05.822Z,21.93
2022-10-31T07:56:33.725Z,20.10
2022-10-31T07:59:01.630Z,14.33
2022-10-31T08:01:29.556Z,22.40
2022-10-31T08:03:57.458Z,18.57
2022-10-31T08:06:25.376Z,18.23
2022-10-31T08:08:53.257Z,15.47
2022-10-31T08:11:22.530Z,15.00
2022-10-31T08:13:50.480Z,11.60
2022-10-31T08:16:18.563Z,13.90
2022-10-31T08:18:46.648Z,12.10
2022-10-31T08:21:14.564Z,8.33
2022-10-31T08:23:42.457Z,53.63
2022-10-31T08:26:10.371Z,22.20
2022-10-31T08:28:39.640Z,10.73
2022-10-31T08:31:07.783Z,16.93
2022-10-31T08:33:35.838Z,14.00
2022-10-31T08:36:03.833Z,13.60
2022-10-31T08:38:31.725Z,17.50
2022-10-31T08:40:59.590Z,17.17
2022-10-31T08:43:27.516Z,10.07
2022-10-31T08:45:56.801Z,15.57
2022-10-31T08:48:24.724Z,13.07
2022-10-31T08:50:52.707Z,29.07
2022-10-31T08:53:21.412Z,20.67
2022-10-31T08:55:49.534Z,13.60
2022-10-31T08:58:18.523Z,14.30
2022-10-31T09:00:47.040Z,6.70
2022-10-31T09:03:17.520Z,7.23
2022-10-31T09:05:46.816Z,9.67
2022-10-31T09:08:16.998Z,9.00
2022-10-31T09:10:45.759Z,12.50
2022-10-31T09:13:15.689Z,14.90
2022-10-31T09:15:45.956Z,21.57
2022-10-31T09:18:16.849Z,27.27
2022-10-31T09:20:45.735Z,6.37
2022-10-31T09:23:15.321Z,8.73
2022-10-31T09:25:49.117Z,7.13
2022-10-31T09:28:19.951Z,7.03
2022-10-31T09:30:48.556Z,6.70
2022-10-31T09:33:18.514Z,8.20
2022-10-31T09:35:46.379Z,6.10
2022-10-31T09:38:16.093Z,4.47
2022-10-31T09:40:45.611Z,14.73
2022-10-31T09:43:19.940Z,5.80
2022-10-31T09:45:54.770Z,5.47
2022-10-31T09:48:48.291Z,4.83
2022-10-31T09:51:20.187Z,5.10
2022-10-31T09:53:52.560Z,5.93
2022-10-31T09:56:22.434Z,4.73
2022-10-31T09:58:54.900Z,8.03
2022-10-31T10:01:32.678Z,8.07
2022-10-31T10:04:05.315Z,5.60
2022-10-31T10:06:36.695Z,12.97
2022-10-31T10:09:05.198Z,4.03
2022-10-31T10:11:43.764Z,8.80
2022-10-31T10:14:23.249Z,3.67
2022-10-31T10:17:01.399Z,4.93
2022-10-31T10:19:47.571Z,4.83
2022-10-31T10:22:21.404Z,5.87
2022-10-31T10:25:04.673Z,4.53
2022-10-31T10:28:03.109Z,3.63
2022-10-31T10:30:36.291Z,4.60
2022-10-31T10:33:09.837Z,4.73
2022-10-31T10:35:43.016Z,5.10
2022-10-31T10:38:16.868Z,5.83
2022-10-31T10:40:44.947Z,4.93
2022-10-31T10:43:25.346Z,3.87
2022-10-31T10:46:18.797Z,2.80
2022-10-31T10:48:47.748Z,5.50
2022-10-31T10:51:38.834Z,7.40
2022-10-31T10:54:22.997Z,7.03
2022-10-31T10:56:59.210Z,4.03
2022-10-31T10:59:27.646Z,6.70
2022-10-31T11:01:55.524Z,7.07
2022-10-31T11:04:30.896Z,5.17
2022-10-31T11:07:01.432Z,11.10
2022-10-31T11:09:29.431Z,5.53
2022-10-31T11:11:58.187Z,3.80
2022-10-31T11:14:26.631Z,4.30
2022-10-31T11:17:08.551Z,6.13
2022-10-31T11:19:37.026Z,4.43
2022-10-31T11:22:10.715Z,4.63
2022-10-31T11:24:40.830Z,5.67
2022-10-31T11:27:16.234Z,4.47
2022-10-31T11:29:44.268Z,5.00
2022-10-31T11:32:21.293Z,8.80
2022-10-31T11:34:51.363Z,9.40
2022-10-31T11:37:22.652Z,5.07
2022-10-31T11:39:54.515Z,6.00
2022-10-31T11:42:24.268Z,7.97
2022-10-31T11:44:53.398Z,10.43
2022-10-31T11:47:27.829Z,7.93
2022-10-31T11:49:56.650Z,9.83
2022-10-31T11:52:28.248Z,8.80
2022-10-31T11:54:57.464Z,10.40
2022-10-31T11:57:27.686Z,12.80
2022-10-31T11:59:57.140Z,11.37
2022-10-31T12:02:25.611Z,6.00
2022-10-31T12:04:58.975Z,8.87
2022-10-31T12:07:28.269Z,8.57
2022-10-31T12:09:56.431Z,11.03
2022-10-31T12:12:36.990Z,7.23
2022-10-31T12:15:24.348Z,9.53
2022-10-31T12:18:00.216Z,7.40
2022-10-31T12:20:38.146Z,9.00
2022-10-31T12:23:12.001Z,8.33
2022-10-31T12:25:43.506Z,8.80
2022-10-31T12:28:26.163Z,15.50
2022-10-31T12:31:03.012Z,8.80
2022-10-31T12:33:43.471Z,10.10
2022-10-31T12:36:23.546Z,9.33
2022-10-31T12:39:05.746Z,8.47
2022-10-31T12:41:46.488Z,10.20
2022-10-31T12:44:27.730Z,9.63
2022-10-31T12:47:08.266Z,14.87
2022-10-31T12:49:44.614Z,9.00
2022-10-31T12:52:22.592Z,9.90
2022-10-31T12:55:04.393Z,9.83
2022-10-31T12:57:34.223Z,8.53
2022-10-31T13:00:06.053Z,8.97
2022-10-31T13:02:38.522Z,9.00
2022-10-31T13:05:20.110Z,12.10
2022-10-31T13:07:51.726Z,8.80
2022-10-31T13:10:24.617Z,22.00
2022-10-31T13:12:57.852Z,11.20
2022-10-31T13:15:29.301Z,15.97
2022-10-31T13:17:59.332Z,9.67
2022-10-31T13:20:30.841Z,11.33
2022-10-31T13:23:07.235Z,9.57
2022-10-31T13:25:46.320Z,9.93
2022-10-31T13:28:23.341Z,11.23
2022-10-31T13:30:52.229Z,11.50
2022-10-31T13:33:23.716Z,11.93
2022-10-31T13:36:00.862Z,10.70
2022-10-31T13:38:35.979Z,14.20
2022-10-31T13:41:14.492Z,15.33
2022-10-31T13:43:55.695Z,12.67
2022-10-31T13:46:26.044Z,12.17
2022-10-31T13:48:53.973Z,11.90
2022-10-31T13:51:29.345Z,14.33
2022-10-31T13:54:02.636Z,11.40
2022-10-31T13:56:33.480Z,12.23
2022-10-31T13:59:05.245Z,11.40
2022-10-31T14:01:34.550Z,11.90
2022-10-31T14:04:13.007Z,15.97
2022-10-31T14:06:49.965Z,11.27
2022-10-31T14:09:27.280Z,11.50
2022-10-31T14:11:57.617Z,17.90
2022-10-31T14:14:31.034Z,12.70
2022-10-31T14:17:00.142Z,16.43
2022-10-31T14:19:28.582Z,18.90
2022-10-31T14:21:56.569Z,15.87
2022-10-31T14:24:36.552Z,14.20
2022-10-31T14:27:21.665Z,18.77
2022-10-31T14:29:50.755Z,20.13
2022-10-31T14:32:23.496Z,17.07
2022-10-31T14:34:55.955Z,14.03
2022-10-31T14:37:46.498Z,19.30
2022-10-31T14:40:28.758Z,13.60
2022-10-31T14:43:30.006Z,11.97
2022-10-31T14:46:03.563Z,15.33
2022-10-31T14:48:54.263Z,12.60
2022-10-31T14:51:23.636Z,10.37
2022-10-31T14:53:53.303Z,11.93
2022-10-31T14:56:25.969Z,10.70
2022-10-31T14:58:56.196Z,12.70
2022-10-31T15:01:28.535Z,13.53
2022-10-31T15:06:50.203Z,10.60
2022-10-31T15:09:25.355Z,11.87
2022-10-31T15:11:53.454Z,9.03
2022-10-31T15:14:27.690Z,10.17
2022-10-31T15:16:56.111Z,9.80
2022-10-31T15:19:25.890Z,8.80
2022-10-31T15:21:55.492Z,13.13
2022-10-31T15:24:25.630Z,8.80
2022-10-31T15:26:55.143Z,10.00
2022-10-31T15:29:24.805Z,11.70
2022-10-31T15:31:55.037Z,8.80
2022-10-31T15:34:26.176Z,9.33
2022-10-31T15:36:54.064Z,8.80
2022-10-31T15:39:26.018Z,14.57
2022-10-31T15:41:56.467Z,11.83
2022-10-31T15:44:27.131Z,12.37
2022-10-31T15:47:00.450Z,14.00
2022-10-31T15:49:34.050Z,9.60
2022-10-31T15:52:08.692Z,10.10
2022-10-31T15:54:37.495Z,9.97
2022-10-31T15:57:06.114Z,13.60
2022-10-31T15:59:34.051Z,8.50
2022-10-31T16:02:04.654Z,12.33
2022-10-31T16:04:32.652Z,13.73
2022-10-31T16:07:05.289Z,12.90
2022-10-31T16:09:33.384Z,10.93
2022-10-31T16:12:01.521Z,11.40
2022-10-31T16:14:31.206Z,11.27
2022-10-31T16:17:00.204Z,11.03
2022-10-31T16:19:32.051Z,15.90
2022-10-31T16:22:06.569Z,14.30
2022-10-31T16:24:37.775Z,10.33
2022-10-31T16:27:07.109Z,12.50
2022-10-31T16:29:41.367Z,13.00
2022-10-31T16:32:27.848Z,56.23
2022-10-31T16:35:25.962Z,60.97
2022-10-31T16:37:54.215Z,70.53
2022-10-31T16:40:22.680Z,30.90
2022-10-31T16:42:50.895Z,22.20
2022-10-31T16:45:20.420Z,14.57
2022-10-31T16:47:49.292Z,15.43
2022-10-31T16:50:19.088Z,14.43
2022-10-31T16:55:36.627Z,14.77
2022-10-31T16:58:04.683Z,15.83
2022-10-31T17:00:33.110Z,17.10
2022-10-31T17:03:01.279Z,20.47
2022-10-31T17:05:30.419Z,18.60
2022-10-31T17:08:00.815Z,18.80
2022-10-31T17:10:29.370Z,21.37
2022-10-31T17:12:58.035Z,16.73
2022-10-31T17:15:27.630Z,20.57
2022-10-31T17:17:55.794Z,17.70
2022-10-31T17:20:25.255Z,18.10
2022-10-31T17:22:53.480Z,18.33
2022-10-31T17:25:24.534Z,19.33
2022-10-31T17:27:52.902Z,27.53
2022-10-31T17:30:22.134Z,18.40
2022-10-31T17:32:50.855Z,20.20
2022-10-31T17:35:19.389Z,18.07
2022-10-31T17:37:47.731Z,23.20
2022-10-31T17:40:19.181Z,18.90
2022-10-31T17:42:52.442Z,25.00
2022-10-31T17:45:20.611Z,25.70
2022-10-31T17:47:49.563Z,20.80
2022-10-31T17:50:17.736Z,21.60
2022-10-31T17:52:45.659Z,24.63
2022-10-31T17:55:14.184Z,19.30
2022-10-31T17:57:42.483Z,22.83
2022-10-31T18:00:14.681Z,21.30
2022-10-31T18:02:42.650Z,20.53
2022-10-31T18:05:11.318Z,17.93
2022-10-31T18:07:39.294Z,23.27
2022-10-31T18:10:08.392Z,21.60
2022-10-31T18:12:36.919Z,21.83
2022-10-31T18:15:05.169Z,22.27
2022-10-31T18:17:35.882Z,17.17
2022-10-31T18:20:06.994Z,18.77
2022-10-31T18:22:34.876Z,22.53
2022-10-31T18:25:03.170Z,20.30
2022-10-31T18:27:31.057Z,37.20
2022-10-31T18:29:59.037Z,28.30
2022-10-31T18:32:26.970Z,25.30
2022-10-31T18:34:56.240Z,25.10
2022-10-31T18:37:24.359Z,18.80
2022-10-31T18:39:52.218Z,26.03
2022-10-31T18:42:20.156Z,17.87
2022-10-31T18:44:48.027Z,20.03
2022-10-31T18:47:15.930Z,16.90
2022-10-31T18:49:43.792Z,22.97
2022-10-31T18:52:13.061Z,22.20
2022-10-31T18:54:40.949Z,31.13
2022-10-31T18:57:08.922Z,23.93
2022-10-31T18:59:36.806Z,21.70
2022-10-31T19:02:04.808Z,21.63
2022-10-31T19:04:32.822Z,35.33
2022-10-31T19:07:00.861Z,28.93
2022-10-31T19:09:31.017Z,15.70
2022-10-31T19:11:58.954Z,62.80
2022-10-31T19:14:26.839Z,46.83
2022-10-31T19:16:57.125Z,46.27
2022-10-31T19:19:27.617Z,27.57
2022-10-31T19:21:56.076Z,32.73
2022-10-31T19:24:23.963Z,17.83
2022-10-31T19:26:53.220Z,13.80
2022-10-31T19:29:21.256Z,16.23
2022-10-31T19:31:49.355Z,14.60
2022-10-31T19:34:17.226Z,26.47
2022-10-31T19:36:45.542Z,19.30
2022-10-31T19:39:13.604Z,22.80
2022-10-31T19:41:41.540Z,26.20
2022-10-31T19:44:13.364Z,30.23
2022-10-31T19:46:52.695Z,21.20
2022-10-31T19:49:21.759Z,24.97
2022-10-31T19:51:49.650Z,28.97
2022-10-31T19:54:17.620Z,21.27
2022-10-31T19:56:45.550Z,34.07
2022-10-31T19:59:14.870Z,35.57
2022-10-31T20:01:42.914Z,36.70
2022-10-31T20:04:10.847Z,36.40
2022-10-31T20:06:40.706Z,27.30
2022-10-31T20:09:09.775Z,22.07
2022-10-31T20:11:38.799Z,24.10
2022-10-31T20:14:07.455Z,25.50
2022-10-31T20:16:36.731Z,25.00
2022-10-31T20:19:04.686Z,35.30
2022-10-31T20:21:33.344Z,38.60
2022-10-31T20:24:03.005Z,47.53
2022-10-31T20:26:32.030Z,46.17
2022-10-31T20:29:00.726Z,40.30
2022-10-31T20:31:30.251Z,62.13
2022-10-31T20:33:59.615Z,89.97
2022-10-31T20:36:28.816Z,77.00
2022-10-31T20:38:56.769Z,55.47
2022-10-31T20:41:24.635Z,45.90
2022-10-31T20:43:52.521Z,54.60
2022-10-31T20:46:21.640Z,102.13
2022-10-31T20:48:49.744Z,41.87
2022-10-31T20:51:21.438Z,49.13
2022-10-31T20:53:49.483Z,81.57
2022-10-31T20:56:19.784Z,60.77
2022-10-31T20:58:47.947Z,39.10
2022-10-31T21:01:17.317Z,54.40
2022-10-31T21:03:45.769Z,54.03
2022-10-31T21:06:13.945Z,78.23
2022-10-31T21:08:43.535Z,76.47
2022-10-31T21:11:13.539Z,69.80
2022-10-31T21:13:42.647Z,64.43
2022-10-31T21:16:14.831Z,67.50
2022-10-31T21:18:43.826Z,40.30
2022-10-31T21:21:13.404Z,35.80
2022-10-31T21:23:41.279Z,29.47
2022-10-31T21:26:14.426Z,37.93
2022-10-31T21:28:42.583Z,26.20
2022-10-31T21:31:13.064Z,32.03
2022-10-31T21:33:41.267Z,48.27
2022-10-31T21:36:09.622Z,40.90
2022-10-31T21:38:37.739Z,40.73
2022-10-31T21:41:07.083Z,45.43
2022-10-31T21:43:38.576Z,51.23
2022-10-31T21:46:07.651Z,27.00
2022-10-31T21:48:41.412Z,35.53
2022-10-31T21:51:10.531Z,45.30
2022-10-31T21:53:56.318Z,37.00
2022-10-31T21:56:24.725Z,27.70
2022-10-31T21:58:54.750Z,32.73
2022-10-31T22:01:24.219Z,31.63
2022-10-31T22:03:52.516Z,26.83
2022-10-31T22:06:20.784Z,26.27
2022-10-31T22:08:49.073Z,36.13
2022-10-31T22:11:18.616Z,33.00
2022-10-31T22:13:49.759Z,26.07
2022-10-31T22:16:20.631Z,32.00
2022-10-31T22:18:48.918Z,32.40
2022-10-31T22:21:19.122Z,34.53
2022-10-31T22:23:51.412Z,22.67
2022-10-31T22:26:19.759Z,23.30
2022-10-31T22:28:48.863Z,24.37
2022-10-31T22:31:19.692Z,29.23
2022-10-31T22:33:48.269Z,19.70
2022-10-31T22:36:17.912Z,19.07
2022-10-31T22:38:46.444Z,21.07
2022-10-31T22:41:17.400Z,17.77
2022-10-31T22:43:45.612Z,26.23
2022-10-31T22:46:15.095Z,26.60
2022-10-31T22:48:45.797Z,22.53
2022-10-31T22:51:16.751Z,20.33
2022-10-31T22:53:44.867Z,27.80
2022-10-31T22:56:14.966Z,20.37
2022-10-31T22:58:43.411Z,21.43
2022-10-31T23:01:13.716Z,16.80
2022-10-31T23:03:42.031Z,16.27
2022-10-31T23:06:13.577Z,18.63
2022-10-31T23:08:42.030Z,26.03
2022-10-31T23:11:17.872Z,19.90
2022-10-31T23:14:04.303Z,18.47
2022-10-31T23:16:32.531Z,15.50
2022-10-31T23:19:00.573Z,17.30
2022-10-31T23:21:55.832Z,17.67
2022-10-31T23:24:25.215Z,15.20
2022-10-31T23:27:09.472Z,13.60
2022-10-31T23:29:40.145Z,15.03
2022-10-31T23:32:11.320Z,13.53
2022-10-31T23:34:39.329Z,15.50
2022-10-31T23:39:41.712Z,13.93
2022-10-31T23:42:09.847Z,16.50
2022-10-31T23:44:37.725Z,16.53
2022-10-31T23:47:05.961Z,15.03
2022-10-31T23:49:34.066Z,14.20
2022-10-31T23:52:02.144Z,17.67
2022-10-31T23:54:31.844Z,15.93
2022-10-31T23:57:00.096Z,12.17
2022-10-31T23:59:29.121Z,13.90
